sensor_id;sensor_type;location;lat;lon;timestamp;P1;durP1;ratioP1;P2;durP2;ratioP2
43337;SDS011;28933;52.492;13.434;2023-03-01T00:00:14;23.63;;;14.60;;
43337;SDS011;28933;52.492;13.434;2023-03-01T00:02:40;18.50;;;12.07;;
43337;SDS011;28933;52.492;13.434;2023-03-01T00:05:06;21.65;;;13.55;;
43337;SDS011;28933;52.492;13.434;2023-03-01T00:07:32;19.13;;;12.65;;
43337;SDS011;28933;52.492;13.434;2023-03-01T00:09:58;20.27;;;13.07;;
43337;SDS011;28933;52.492;13.434;2023-03-01T00:12:24;21.25;;;13.30;;
43337;SDS011;28933;52.492;13.434;2023-03-01T00:14:50;23.63;;;13.07;;
43337;SDS011;28933;52.492;13.434;2023-03-01T00:17:15;22.40;;;14.02;;
43337;SDS011;28933;52.492;13.434;2023-03-01T00:19:41;19.20;;;13.35;;
43337;SDS011;28933;52.492;13.434;2023-03-01T00:22:07;20.50;;;13.07;;
43337;SDS011;28933;52.492;13.434;2023-03-01T00:24:33;24.98;;;13.32;;
43337;SDS011;28933;52.492;13.434;2023-03-01T00:26:58;22.00;;;12.30;;
43337;SDS011;28933;52.492;13.434;2023-03-01T00:29:24;18.48;;;11.93;;
43337;SDS011;28933;52.492;13.434;2023-03-01T00:31:51;22.17;;;13.52;;
43337;SDS011;28933;52.492;13.434;2023-03-01T00:34:16;22.40;;;13.23;;
43337;SDS011;28933;52.492;13.434;2023-03-01T00:36:42;20.92;;;13.52;;
43337;SDS011;28933;52.492;13.434;2023-03-01T00:39:10;20.40;;;14.73;;
43337;SDS011;28933;52.492;13.434;2023-03-01T00:41:38;23.00;;;13.63;;
43337;SDS011;28933;52.492;13.434;2023-03-01T00:44:05;22.95;;;13.15;;
43337;SDS011;28933;52.492;13.434;2023-03-01T00:46:30;23.35;;;14.60;;
43337;SDS011;28933;52.492;13.434;2023-03-01T00:48:56;22.40;;;14.50;;
43337;SDS011;28933;52.492;13.434;2023-03-01T00:51:23;23.17;;;13.40;;
43337;SDS011;28933;52.492;13.434;2023-03-01T00:53:51;21.92;;;13.80;;
43337;SDS011;28933;52.492;13.434;2023-03-01T00:56:18;22.23;;;13.38;;
43337;SDS011;28933;52.492;13.434;2023-03-01T00:58:44;23.48;;;14.10;;
43337;SDS011;28933;52.492;13.434;2023-03-01T01:01:11;22.08;;;13.38;;
43337;SDS011;28933;52.492;13.434;2023-03-01T01:03:48;22.33;;;12.90;;
43337;SDS011;28933;52.492;13.434;2023-03-01T01:06:18;19.27;;;12.32;;
43337;SDS011;28933;52.492;13.434;2023-03-01T01:08:49;21.05;;;13.93;;
43337;SDS011;28933;52.492;13.434;2023-03-01T01:11:15;21.88;;;13.25;;
43337;SDS011;28933;52.492;13.434;2023-03-01T01:13:41;18.85;;;12.68;;
43337;SDS011;28933;52.492;13.434;2023-03-01T01:16:08;22.50;;;13.48;;
43337;SDS011;28933;52.492;13.434;2023-03-01T01:18:34;19.73;;;13.63;;
43337;SDS011;28933;52.492;13.434;2023-03-01T01:21:03;25.23;;;14.88;;
43337;SDS011;28933;52.492;13.434;2023-03-01T01:23:30;21.45;;;13.95;;
43337;SDS011;28933;52.492;13.434;2023-03-01T01:25:56;21.55;;;13.27;;
43337;SDS011;28933;52.492;13.434;2023-03-01T01:28:21;25.95;;;13.55;;
43337;SDS011;28933;52.492;13.434;2023-03-01T01:30:47;20.70;;;13.10;;
43337;SDS011;28933;52.492;13.434;2023-03-01T01:33:13;23.98;;;13.60;;
43337;SDS011;28933;52.492;13.434;2023-03-01T01:35:38;24.75;;;13.82;;
43337;SDS011;28933;52.492;13.434;2023-03-01T01:38:04;19.13;;;12.45;;
43337;SDS011;28933;52.492;13.434;2023-03-01T01:40:29;20.45;;;12.07;;
43337;SDS011;28933;52.492;13.434;2023-03-01T01:42:55;23.90;;;12.32;;
43337;SDS011;28933;52.492;13.434;2023-03-01T01:47:50;20.40;;;11.63;;
43337;SDS011;28933;52.492;13.434;2023-03-01T01:50:17;20.13;;;11.38;;
43337;SDS011;28933;52.492;13.434;2023-03-01T01:52:44;19.70;;;12.73;;
43337;SDS011;28933;52.492;13.434;2023-03-01T01:55:14;19.80;;;11.77;;
43337;SDS011;28933;52.492;13.434;2023-03-01T01:57:46;17.33;;;10.65;;
43337;SDS011;28933;52.492;13.434;2023-03-01T02:00:18;18.45;;;10.88;;
43337;SDS011;28933;52.492;13.434;2023-03-01T02:02:49;19.67;;;12.68;;
43337;SDS011;28933;52.492;13.434;2023-03-01T02:05:36;17.83;;;11.05;;
43337;SDS011;28933;52.492;13.434;2023-03-01T02:08:27;22.15;;;12.35;;
43337;SDS011;28933;52.492;13.434;2023-03-01T02:10:57;22.83;;;12.40;;
43337;SDS011;28933;52.492;13.434;2023-03-01T02:13:25;20.23;;;12.23;;
43337;SDS011;28933;52.492;13.434;2023-03-01T02:15:51;21.65;;;11.80;;
43337;SDS011;28933;52.492;13.434;2023-03-01T02:18:18;21.65;;;12.93;;
43337;SDS011;28933;52.492;13.434;2023-03-01T02:23:23;21.85;;;13.13;;
43337;SDS011;28933;52.492;13.434;2023-03-01T02:26:05;18.13;;;11.57;;
43337;SDS011;28933;52.492;13.434;2023-03-01T02:28:38;18.80;;;11.05;;
43337;SDS011;28933;52.492;13.434;2023-03-01T02:31:07;20.83;;;12.18;;
43337;SDS011;28933;52.492;13.434;2023-03-01T02:33:53;20.05;;;12.30;;
43337;SDS011;28933;52.492;13.434;2023-03-01T02:36:21;16.90;;;11.57;;
43337;SDS011;28933;52.492;13.434;2023-03-01T02:38:51;19.02;;;12.13;;
43337;SDS011;28933;52.492;13.434;2023-03-01T02:41:21;18.85;;;11.32;;
43337;SDS011;28933;52.492;13.434;2023-03-01T02:43:48;15.77;;;10.73;;
43337;SDS011;28933;52.492;13.434;2023-03-01T02:46:18;17.05;;;10.48;;
43337;SDS011;28933;52.492;13.434;2023-03-01T02:48:50;18.02;;;10.65;;
43337;SDS011;28933;52.492;13.434;2023-03-01T02:56:50;20.58;;;10.95;;
43337;SDS011;28933;52.492;13.434;2023-03-01T02:59:18;16.35;;;11.07;;
43337;SDS011;28933;52.492;13.434;2023-03-01T03:01:46;22.88;;;11.50;;
43337;SDS011;28933;52.492;13.434;2023-03-01T03:04:14;17.10;;;10.23;;
43337;SDS011;28933;52.492;13.434;2023-03-01T03:06:42;20.25;;;10.73;;
43337;SDS011;28933;52.492;13.434;2023-03-01T03:09:11;17.15;;;10.48;;
43337;SDS011;28933;52.492;13.434;2023-03-01T03:11:37;17.17;;;10.25;;
43337;SDS011;28933;52.492;13.434;2023-03-01T03:14:05;18.35;;;11.38;;
43337;SDS011;28933;52.492;13.434;2023-03-01T03:16:37;17.20;;;11.15;;
43337;SDS011;28933;52.492;13.434;2023-03-01T03:19:07;20.73;;;11.25;;
43337;SDS011;28933;52.492;13.434;2023-03-01T03:21:33;20.67;;;12.25;;
43337;SDS011;28933;52.492;13.434;2023-03-01T03:23:59;19.13;;;10.85;;
43337;SDS011;28933;52.492;13.434;2023-03-01T03:26:25;17.20;;;11.05;;
43337;SDS011;28933;52.492;13.434;2023-03-01T03:28:50;18.23;;;11.90;;
43337;SDS011;28933;52.492;13.434;2023-03-01T03:31:16;18.17;;;12.00;;
43337;SDS011;28933;52.492;13.434;2023-03-01T03:33:42;19.13;;;11.98;;
43337;SDS011;28933;52.492;13.434;2023-03-01T03:36:07;20.08;;;11.88;;
43337;SDS011;28933;52.492;13.434;2023-03-01T03:38:38;19.58;;;11.25;;
43337;SDS011;28933;52.492;13.434;2023-03-01T03:41:06;21.13;;;11.70;;
43337;SDS011;28933;52.492;13.434;2023-03-01T03:43:33;17.60;;;11.75;;
43337;SDS011;28933;52.492;13.434;2023-03-01T03:46:01;19.40;;;12.35;;
43337;SDS011;28933;52.492;13.434;2023-03-01T03:48:31;18.25;;;12.43;;
43337;SDS011;28933;52.492;13.434;2023-03-01T03:50:59;18.10;;;12.25;;
43337;SDS011;28933;52.492;13.434;2023-03-01T03:53:25;20.48;;;12.35;;
43337;SDS011;28933;52.492;13.434;2023-03-01T03:55:53;18.63;;;10.48;;
43337;SDS011;28933;52.492;13.434;2023-03-01T03:58:19;17.88;;;11.15;;
43337;SDS011;28933;52.492;13.434;2023-03-01T04:00:47;20.88;;;12.40;;
43337;SDS011;28933;52.492;13.434;2023-03-01T04:03:14;18.75;;;10.93;;
43337;SDS011;28933;52.492;13.434;2023-03-01T04:05:41;22.13;;;12.15;;
43337;SDS011;28933;52.492;13.434;2023-03-01T04:08:07;25.48;;;12.88;;
43337;SDS011;28933;52.492;13.434;2023-03-01T04:10:38;18.95;;;11.82;;
43337;SDS011;28933;52.492;13.434;2023-03-01T04:13:09;23.30;;;13.50;;
43337;SDS011;28933;52.492;13.434;2023-03-01T04:15:37;18.65;;;12.98;;
43337;SDS011;28933;52.492;13.434;2023-03-01T04:18:03;24.65;;;13.77;;
43337;SDS011;28933;52.492;13.434;2023-03-01T04:20:30;20.55;;;12.38;;
43337;SDS011;28933;52.492;13.434;2023-03-01T04:23:18;22.33;;;13.55;;
43337;SDS011;28933;52.492;13.434;2023-03-01T04:25:52;21.08;;;12.95;;
43337;SDS011;28933;52.492;13.434;2023-03-01T04:28:24;24.20;;;13.15;;
43337;SDS011;28933;52.492;13.434;2023-03-01T04:30:50;23.85;;;12.90;;
43337;SDS011;28933;52.492;13.434;2023-03-01T04:33:16;22.48;;;13.40;;
43337;SDS011;28933;52.492;13.434;2023-03-01T04:35:42;23.48;;;14.38;;
43337;SDS011;28933;52.492;13.434;2023-03-01T04:38:08;25.20;;;15.07;;
43337;SDS011;28933;52.492;13.434;2023-03-01T04:40:34;21.75;;;13.98;;
43337;SDS011;28933;52.492;13.434;2023-03-01T04:43:00;20.73;;;13.65;;
43337;SDS011;28933;52.492;13.434;2023-03-01T04:45:27;21.10;;;13.77;;
43337;SDS011;28933;52.492;13.434;2023-03-01T04:47:53;23.15;;;13.52;;
43337;SDS011;28933;52.492;13.434;2023-03-01T04:50:19;23.98;;;15.05;;
43337;SDS011;28933;52.492;13.434;2023-03-01T04:52:45;22.77;;;15.07;;
43337;SDS011;28933;52.492;13.434;2023-03-01T04:55:11;29.52;;;16.65;;
43337;SDS011;28933;52.492;13.434;2023-03-01T04:57:38;29.30;;;16.10;;
43337;SDS011;28933;52.492;13.434;2023-03-01T05:00:05;22.70;;;14.82;;
43337;SDS011;28933;52.492;13.434;2023-03-01T05:02:45;24.35;;;15.63;;
43337;SDS011;28933;52.492;13.434;2023-03-01T05:05:13;28.23;;;16.58;;
43337;SDS011;28933;52.492;13.434;2023-03-01T05:07:39;32.25;;;17.42;;
43337;SDS011;28933;52.492;13.434;2023-03-01T05:10:04;24.20;;;15.63;;
43337;SDS011;28933;52.492;13.434;2023-03-01T05:12:30;28.40;;;18.77;;
43337;SDS011;28933;52.492;13.434;2023-03-01T05:14:56;28.38;;;17.35;;
43337;SDS011;28933;52.492;13.434;2023-03-01T05:17:21;35.58;;;19.45;;
43337;SDS011;28933;52.492;13.434;2023-03-01T05:19:47;28.50;;;17.23;;
43337;SDS011;28933;52.492;13.434;2023-03-01T05:22:12;30.77;;;17.27;;
43337;SDS011;28933;52.492;13.434;2023-03-01T05:24:38;27.33;;;17.23;;
43337;SDS011;28933;52.492;13.434;2023-03-01T05:27:04;26.33;;;18.38;;
43337;SDS011;28933;52.492;13.434;2023-03-01T05:29:31;27.50;;;16.98;;
43337;SDS011;28933;52.492;13.434;2023-03-01T05:32:00;31.45;;;16.70;;
43337;SDS011;28933;52.492;13.434;2023-03-01T05:34:31;26.63;;;16.52;;
43337;SDS011;28933;52.492;13.434;2023-03-01T05:36:58;25.88;;;16.38;;
43337;SDS011;28933;52.492;13.434;2023-03-01T05:39:25;30.75;;;17.10;;
43337;SDS011;28933;52.492;13.434;2023-03-01T05:41:54;26.52;;;15.82;;
43337;SDS011;28933;52.492;13.434;2023-03-01T05:44:22;29.00;;;16.52;;
43337;SDS011;28933;52.492;13.434;2023-03-01T05:46:48;31.63;;;17.70;;
43337;SDS011;28933;52.492;13.434;2023-03-01T05:49:14;27.95;;;16.88;;
43337;SDS011;28933;52.492;13.434;2023-03-01T05:51:41;24.52;;;15.80;;
43337;SDS011;28933;52.492;13.434;2023-03-01T05:54:11;25.55;;;15.82;;
43337;SDS011;28933;52.492;13.434;2023-03-01T05:56:36;30.65;;;18.27;;
43337;SDS011;28933;52.492;13.434;2023-03-01T05:59:03;25.65;;;17.45;;
43337;SDS011;28933;52.492;13.434;2023-03-01T06:01:33;26.75;;;16.75;;
43337;SDS011;28933;52.492;13.434;2023-03-01T06:03:59;29.90;;;18.63;;
43337;SDS011;28933;52.492;13.434;2023-03-01T06:06:25;32.38;;;20.10;;
43337;SDS011;28933;52.492;13.434;2023-03-01T06:08:51;28.40;;;17.95;;
43337;SDS011;28933;52.492;13.434;2023-03-01T06:11:17;33.85;;;21.17;;
43337;SDS011;28933;52.492;13.434;2023-03-01T06:13:43;32.22;;;20.05;;
43337;SDS011;28933;52.492;13.434;2023-03-01T06:16:09;29.55;;;18.23;;
43337;SDS011;28933;52.492;13.434;2023-03-01T06:18:36;32.80;;;19.45;;
43337;SDS011;28933;52.492;13.434;2023-03-01T06:21:02;31.60;;;18.85;;
43337;SDS011;28933;52.492;13.434;2023-03-01T06:23:28;33.45;;;20.90;;
43337;SDS011;28933;52.492;13.434;2023-03-01T06:25:53;36.40;;;20.30;;
43337;SDS011;28933;52.492;13.434;2023-03-01T06:28:19;34.72;;;19.88;;
43337;SDS011;28933;52.492;13.434;2023-03-01T06:30:45;32.65;;;20.05;;
43337;SDS011;28933;52.492;13.434;2023-03-01T06:33:11;30.52;;;18.50;;
43337;SDS011;28933;52.492;13.434;2023-03-01T06:35:37;30.02;;;20.10;;
43337;SDS011;28933;52.492;13.434;2023-03-01T06:38:05;32.03;;;18.17;;
43337;SDS011;28933;52.492;13.434;2023-03-01T06:40:31;26.98;;;17.23;;
43337;SDS011;28933;52.492;13.434;2023-03-01T06:42:57;32.83;;;17.33;;
43337;SDS011;28933;52.492;13.434;2023-03-01T06:45:23;27.05;;;16.35;;
43337;SDS011;28933;52.492;13.434;2023-03-01T06:47:49;33.78;;;18.13;;
43337;SDS011;28933;52.492;13.434;2023-03-01T06:50:16;27.15;;;16.83;;
43337;SDS011;28933;52.492;13.434;2023-03-01T06:52:42;27.80;;;18.00;;
43337;SDS011;28933;52.492;13.434;2023-03-01T06:55:09;30.98;;;19.23;;
43337;SDS011;28933;52.492;13.434;2023-03-01T06:57:36;40.53;;;21.00;;
43337;SDS011;28933;52.492;13.434;2023-03-01T07:00:02;36.35;;;20.30;;
43337;SDS011;28933;52.492;13.434;2023-03-01T07:02:29;43.00;;;24.33;;
43337;SDS011;28933;52.492;13.434;2023-03-01T07:04:54;44.45;;;26.70;;
43337;SDS011;28933;52.492;13.434;2023-03-01T07:07:20;36.67;;;21.75;;
43337;SDS011;28933;52.492;13.434;2023-03-01T07:09:46;35.95;;;22.40;;
43337;SDS011;28933;52.492;13.434;2023-03-01T07:12:13;38.15;;;24.05;;
43337;SDS011;28933;52.492;13.434;2023-03-01T07:14:39;34.88;;;20.67;;
43337;SDS011;28933;52.492;13.434;2023-03-01T07:17:04;37.60;;;21.23;;
43337;SDS011;28933;52.492;13.434;2023-03-01T07:19:30;28.58;;;19.38;;
43337;SDS011;28933;52.492;13.434;2023-03-01T07:21:55;32.08;;;19.90;;
43337;SDS011;28933;52.492;13.434;2023-03-01T07:24:21;31.73;;;18.70;;
43337;SDS011;28933;52.492;13.434;2023-03-01T07:26:48;29.77;;;18.67;;
43337;SDS011;28933;52.492;13.434;2023-03-01T07:29:15;29.95;;;20.50;;
43337;SDS011;28933;52.492;13.434;2023-03-01T07:31:41;29.70;;;18.88;;
43337;SDS011;28933;52.492;13.434;2023-03-01T07:34:07;34.03;;;20.73;;
43337;SDS011;28933;52.492;13.434;2023-03-01T07:36:33;31.58;;;18.02;;
43337;SDS011;28933;52.492;13.434;2023-03-01T07:38:58;31.30;;;17.45;;
43337;SDS011;28933;52.492;13.434;2023-03-01T07:41:27;27.55;;;18.08;;
43337;SDS011;28933;52.492;13.434;2023-03-01T07:43:53;30.23;;;18.50;;
43337;SDS011;28933;52.492;13.434;2023-03-01T07:46:18;27.80;;;18.00;;
43337;SDS011;28933;52.492;13.434;2023-03-01T07:48:44;26.63;;;17.15;;
43337;SDS011;28933;52.492;13.434;2023-03-01T07:51:10;32.05;;;19.83;;
43337;SDS011;28933;52.492;13.434;2023-03-01T07:53:36;27.63;;;17.25;;
43337;SDS011;28933;52.492;13.434;2023-03-01T07:58:34;32.38;;;18.75;;
43337;SDS011;28933;52.492;13.434;2023-03-01T08:01:03;25.40;;;17.45;;
43337;SDS011;28933;52.492;13.434;2023-03-01T08:03:30;29.10;;;18.30;;
43337;SDS011;28933;52.492;13.434;2023-03-01T08:05:59;26.27;;;17.45;;
43337;SDS011;28933;52.492;13.434;2023-03-01T08:08:25;25.95;;;17.48;;
43337;SDS011;28933;52.492;13.434;2023-03-01T08:10:50;31.02;;;18.05;;
43337;SDS011;28933;52.492;13.434;2023-03-01T08:13:16;25.23;;;16.10;;
43337;SDS011;28933;52.492;13.434;2023-03-01T08:15:47;25.30;;;15.82;;
43337;SDS011;28933;52.492;13.434;2023-03-01T08:18:13;23.83;;;15.73;;
43337;SDS011;28933;52.492;13.434;2023-03-01T08:20:39;25.85;;;15.50;;
43337;SDS011;28933;52.492;13.434;2023-03-01T08:23:05;22.52;;;13.85;;
43337;SDS011;28933;52.492;13.434;2023-03-01T08:25:31;24.02;;;16.23;;
43337;SDS011;28933;52.492;13.434;2023-03-01T08:27:56;23.83;;;13.60;;
43337;SDS011;28933;52.492;13.434;2023-03-01T08:30:22;18.77;;;11.75;;
43337;SDS011;28933;52.492;13.434;2023-03-01T08:32:49;17.42;;;11.50;;
43337;SDS011;28933;52.492;13.434;2023-03-01T08:35:14;19.40;;;11.82;;
43337;SDS011;28933;52.492;13.434;2023-03-01T08:37:40;18.55;;;12.38;;
43337;SDS011;28933;52.492;13.434;2023-03-01T08:40:06;18.45;;;12.05;;
43337;SDS011;28933;52.492;13.434;2023-03-01T08:42:33;19.75;;;11.68;;
43337;SDS011;28933;52.492;13.434;2023-03-01T08:44:59;24.80;;;13.20;;
43337;SDS011;28933;52.492;13.434;2023-03-01T08:47:24;18.05;;;11.93;;
43337;SDS011;28933;52.492;13.434;2023-03-01T08:49:51;17.95;;;11.35;;
43337;SDS011;28933;52.492;13.434;2023-03-01T08:52:17;17.55;;;12.25;;
43337;SDS011;28933;52.492;13.434;2023-03-01T08:54:44;21.35;;;12.02;;
43337;SDS011;28933;52.492;13.434;2023-03-01T08:57:09;15.45;;;10.73;;
43337;SDS011;28933;52.492;13.434;2023-03-01T08:59:35;16.92;;;9.60;;
43337;SDS011;28933;52.492;13.434;2023-03-01T09:02:02;16.45;;;11.23;;
43337;SDS011;28933;52.492;13.434;2023-03-01T09:04:29;14.35;;;9.02;;
43337;SDS011;28933;52.492;13.434;2023-03-01T09:06:55;18.05;;;10.23;;
43337;SDS011;28933;52.492;13.434;2023-03-01T09:09:20;19.77;;;10.48;;
43337;SDS011;28933;52.492;13.434;2023-03-01T09:11:46;14.15;;;8.60;;
43337;SDS011;28933;52.492;13.434;2023-03-01T09:14:12;14.65;;;8.60;;
43337;SDS011;28933;52.492;13.434;2023-03-01T09:16:38;13.30;;;7.72;;
43337;SDS011;28933;52.492;13.434;2023-03-01T09:19:04;12.05;;;7.85;;
43337;SDS011;28933;52.492;13.434;2023-03-01T09:21:30;10.90;;;7.25;;
43337;SDS011;28933;52.492;13.434;2023-03-01T09:23:57;10.25;;;6.70;;
43337;SDS011;28933;52.492;13.434;2023-03-01T09:26:23;15.20;;;8.18;;
43337;SDS011;28933;52.492;13.434;2023-03-01T09:28:50;10.75;;;7.38;;
43337;SDS011;28933;52.492;13.434;2023-03-01T09:31:19;11.10;;;7.40;;
43337;SDS011;28933;52.492;13.434;2023-03-01T09:33:46;11.50;;;7.07;;
43337;SDS011;28933;52.492;13.434;2023-03-01T09:36:17;11.82;;;7.93;;
43337;SDS011;28933;52.492;13.434;2023-03-01T09:38:45;11.95;;;7.45;;
43337;SDS011;28933;52.492;13.434;2023-03-01T09:41:19;13.48;;;6.95;;
43337;SDS011;28933;52.492;13.434;2023-03-01T09:46:40;8.80;;;5.93;;
43337;SDS011;28933;52.492;13.434;2023-03-01T09:49:15;10.40;;;6.03;;
43337;SDS011;28933;52.492;13.434;2023-03-01T09:52:40;11.48;;;5.57;;
43337;SDS011;28933;52.492;13.434;2023-03-01T09:54:57;7.97;;;4.88;;
43337;SDS011;28933;52.492;13.434;2023-03-01T10:00:12;7.95;;;4.75;;
43337;SDS011;28933;52.492;13.434;2023-03-01T10:02:48;6.90;;;4.35;;
43337;SDS011;28933;52.492;13.434;2023-03-01T10:10:40;5.53;;;4.13;;
43337;SDS011;28933;52.492;13.434;2023-03-01T10:13:15;8.45;;;4.35;;
43337;SDS011;28933;52.492;13.434;2023-03-01T10:16:22;9.10;;;4.63;;
43337;SDS011;28933;52.492;13.434;2023-03-01T10:18:42;8.73;;;5.25;;
43337;SDS011;28933;52.492;13.434;2023-03-01T10:21:17;10.90;;;4.95;;
43337;SDS011;28933;52.492;13.434;2023-03-01T10:23:44;9.32;;;5.47;;
43337;SDS011;28933;52.492;13.434;2023-03-01T10:32:25;7.07;;;4.25;;
43337;SDS011;28933;52.492;13.434;2023-03-01T10:34:51;6.80;;;4.68;;
43337;SDS011;28933;52.492;13.434;2023-03-01T10:37:18;9.57;;;5.30;;
43337;SDS011;28933;52.492;13.434;2023-03-01T10:42:38;7.43;;;4.43;;
43337;SDS011;28933;52.492;13.434;2023-03-01T10:45:16;8.68;;;4.55;;
43337;SDS011;28933;52.492;13.434;2023-03-01T10:48:13;8.02;;;4.80;;
43337;SDS011;28933;52.492;13.434;2023-03-01T10:50:48;12.82;;;5.72;;
43337;SDS011;28933;52.492;13.434;2023-03-01T10:53:48;9.57;;;5.07;;
43337;SDS011;28933;52.492;13.434;2023-03-01T10:56:15;7.80;;;4.70;;
43337;SDS011;28933;52.492;13.434;2023-03-01T10:58:56;9.00;;;4.65;;
43337;SDS011;28933;52.492;13.434;2023-03-01T11:06:50;8.85;;;4.90;;
43337;SDS011;28933;52.492;13.434;2023-03-01T11:09:24;10.55;;;4.90;;
43337;SDS011;28933;52.492;13.434;2023-03-01T11:11:56;7.43;;;4.32;;
43337;SDS011;28933;52.492;13.434;2023-03-01T11:14:27;6.15;;;3.60;;
43337;SDS011;28933;52.492;13.434;2023-03-01T11:17:02;7.90;;;4.18;;
43337;SDS011;28933;52.492;13.434;2023-03-01T11:22:59;6.15;;;4.70;;
43337;SDS011;28933;52.492;13.434;2023-03-01T11:25:31;7.22;;;4.28;;
43337;SDS011;28933;52.492;13.434;2023-03-01T11:28:01;7.05;;;4.25;;
43337;SDS011;28933;52.492;13.434;2023-03-01T11:30:40;6.32;;;4.25;;
43337;SDS011;28933;52.492;13.434;2023-03-01T11:38:31;6.72;;;4.55;;
43337;SDS011;28933;52.492;13.434;2023-03-01T11:41:05;7.00;;;4.20;;
43337;SDS011;28933;52.492;13.434;2023-03-01T11:46:46;5.45;;;3.45;;
43337;SDS011;28933;52.492;13.434;2023-03-01T11:57:49;6.13;;;3.58;;
43337;SDS011;28933;52.492;13.434;2023-03-01T12:24:58;4.70;;;2.90;;
43337;SDS011;28933;52.492;13.434;2023-03-01T12:33:02;6.97;;;2.50;;
43337;SDS011;28933;52.492;13.434;2023-03-01T12:35:33;3.75;;;2.28;;
43337;SDS011;28933;52.492;13.434;2023-03-01T12:43:47;4.88;;;2.53;;
43337;SDS011;28933;52.492;13.434;2023-03-01T12:46:33;5.22;;;2.35;;
43337;SDS011;28933;52.492;13.434;2023-03-01T12:49:26;3.75;;;2.28;;
43337;SDS011;28933;52.492;13.434;2023-03-01T12:51:58;4.35;;;2.33;;
43337;SDS011;28933;52.492;13.434;2023-03-01T12:54:47;4.03;;;2.50;;
43337;SDS011;28933;52.492;13.434;2023-03-01T13:03:00;3.88;;;2.63;;
43337;SDS011;28933;52.492;13.434;2023-03-01T13:08:58;5.93;;;2.60;;
43337;SDS011;28933;52.492;13.434;2023-03-01T13:11:34;4.97;;;3.08;;
43337;SDS011;28933;52.492;13.434;2023-03-01T13:14:34;5.45;;;2.63;;
43337;SDS011;28933;52.492;13.434;2023-03-01T13:16:49;5.20;;;3.20;;
43337;SDS011;28933;52.492;13.434;2023-03-01T13:21:43;8.57;;;3.17;;
43337;SDS011;28933;52.492;13.434;2023-03-01T13:29:54;4.10;;;2.28;;
43337;SDS011;28933;52.492;13.434;2023-03-01T13:32:25;4.78;;;2.55;;
43337;SDS011;28933;52.492;13.434;2023-03-01T13:37:43;4.53;;;2.78;;
43337;SDS011;28933;52.492;13.434;2023-03-01T13:43:22;3.63;;;2.40;;
43337;SDS011;28933;52.492;13.434;2023-03-01T13:45:50;3.63;;;2.22;;
43337;SDS011;28933;52.492;13.434;2023-03-01T13:48:20;5.20;;;2.67;;
43337;SDS011;28933;52.492;13.434;2023-03-01T13:50:50;5.20;;;2.50;;
43337;SDS011;28933;52.492;13.434;2023-03-01T13:53:20;5.50;;;2.17;;
43337;SDS011;28933;52.492;13.434;2023-03-01T13:55:48;3.75;;;2.50;;
43337;SDS011;28933;52.492;13.434;2023-03-01T13:58:21;6.75;;;3.05;;
43337;SDS011;28933;52.492;13.434;2023-03-01T14:00:54;5.18;;;3.22;;
43337;SDS011;28933;52.492;13.434;2023-03-01T14:03:21;4.07;;;2.30;;
43337;SDS011;28933;52.492;13.434;2023-03-01T14:08:32;3.92;;;2.55;;
43337;SDS011;28933;52.492;13.434;2023-03-01T14:11:22;5.00;;;2.75;;
43337;SDS011;28933;52.492;13.434;2023-03-01T14:20:20;5.25;;;2.60;;
43337;SDS011;28933;52.492;13.434;2023-03-01T14:22:54;4.78;;;2.95;;
43337;SDS011;28933;52.492;13.434;2023-03-01T14:25:24;4.22;;;3.08;;
43337;SDS011;28933;52.492;13.434;2023-03-01T14:30:48;5.65;;;2.70;;
43337;SDS011;28933;52.492;13.434;2023-03-01T14:36:03;4.38;;;2.60;;
43337;SDS011;28933;52.492;13.434;2023-03-01T14:38:40;5.40;;;2.20;;
43337;SDS011;28933;52.492;13.434;2023-03-01T14:44:06;4.07;;;2.47;;
43337;SDS011;28933;52.492;13.434;2023-03-01T14:46:38;6.07;;;2.80;;
43337;SDS011;28933;52.492;13.434;2023-03-01T14:49:07;5.25;;;2.80;;
43337;SDS011;28933;52.492;13.434;2023-03-01T14:51:53;3.97;;;2.70;;
43337;SDS011;28933;52.492;13.434;2023-03-01T14:54:39;7.85;;;3.47;;
43337;SDS011;28933;52.492;13.434;2023-03-01T14:57:23;4.22;;;2.40;;
43337;SDS011;28933;52.492;13.434;2023-03-01T14:59:51;5.30;;;2.65;;
43337;SDS011;28933;52.492;13.434;2023-03-01T15:02:24;4.05;;;2.17;;
43337;SDS011;28933;52.492;13.434;2023-03-01T15:04:52;6.20;;;2.45;;
43337;SDS011;28933;52.492;13.434;2023-03-01T15:07:26;9.45;;;2.90;;
43337;SDS011;28933;52.492;13.434;2023-03-01T15:09:55;5.22;;;3.22;;
43337;SDS011;28933;52.492;13.434;2023-03-01T15:14:53;7.93;;;3.13;;
43337;SDS011;28933;52.492;13.434;2023-03-01T15:17:40;5.00;;;2.80;;
43337;SDS011;28933;52.492;13.434;2023-03-01T15:20:06;5.78;;;2.75;;
43337;SDS011;28933;52.492;13.434;2023-03-01T15:22:43;3.58;;;2.28;;
43337;SDS011;28933;52.492;13.434;2023-03-01T15:25:16;4.30;;;2.70;;
43337;SDS011;28933;52.492;13.434;2023-03-01T15:27:48;4.40;;;2.47;;
43337;SDS011;28933;52.492;13.434;2023-03-01T15:30:19;4.65;;;2.40;;
43337;SDS011;28933;52.492;13.434;2023-03-01T15:33:18;5.55;;;2.72;;
43337;SDS011;28933;52.492;13.434;2023-03-01T15:35:55;5.40;;;2.70;;
43337;SDS011;28933;52.492;13.434;2023-03-01T15:38:35;4.90;;;2.65;;
43337;SDS011;28933;52.492;13.434;2023-03-01T15:41:26;5.15;;;3.25;;
43337;SDS011;28933;52.492;13.434;2023-03-01T15:43:57;5.72;;;3.30;;
43337;SDS011;28933;52.492;13.434;2023-03-01T15:48:52;7.07;;;2.80;;
43337;SDS011;28933;52.492;13.434;2023-03-01T15:51:22;6.15;;;2.55;;
43337;SDS011;28933;52.492;13.434;2023-03-01T15:53:57;6.10;;;2.80;;
43337;SDS011;28933;52.492;13.434;2023-03-01T15:56:24;7.60;;;3.25;;
43337;SDS011;28933;52.492;13.434;2023-03-01T15:58:50;6.88;;;2.85;;
43337;SDS011;28933;52.492;13.434;2023-03-01T16:01:16;5.05;;;3.50;;
43337;SDS011;28933;52.492;13.434;2023-03-01T16:03:43;7.30;;;4.22;;
43337;SDS011;28933;52.492;13.434;2023-03-01T16:06:09;6.68;;;3.80;;
43337;SDS011;28933;52.492;13.434;2023-03-01T16:08:35;5.43;;;2.50;;
43337;SDS011;28933;52.492;13.434;2023-03-01T16:11:03;9.27;;;2.85;;
43337;SDS011;28933;52.492;13.434;2023-03-01T16:13:36;5.20;;;2.60;;
43337;SDS011;28933;52.492;13.434;2023-03-01T16:16:02;6.80;;;4.03;;
43337;SDS011;28933;52.492;13.434;2023-03-01T16:18:27;8.65;;;3.97;;
43337;SDS011;28933;52.492;13.434;2023-03-01T16:20:53;12.48;;;3.28;;
43337;SDS011;28933;52.492;13.434;2023-03-01T16:23:19;5.82;;;2.95;;
43337;SDS011;28933;52.492;13.434;2023-03-01T16:25:46;6.25;;;3.13;;
43337;SDS011;28933;52.492;13.434;2023-03-01T16:28:11;8.20;;;3.38;;
43337;SDS011;28933;52.492;13.434;2023-03-01T16:30:37;5.68;;;3.03;;
43337;SDS011;28933;52.492;13.434;2023-03-01T16:33:04;4.85;;;2.60;;
43337;SDS011;28933;52.492;13.434;2023-03-01T16:35:33;5.93;;;3.55;;
43337;SDS011;28933;52.492;13.434;2023-03-01T16:38:03;9.45;;;3.75;;
43337;SDS011;28933;52.492;13.434;2023-03-01T16:40:29;6.88;;;3.35;;
43337;SDS011;28933;52.492;13.434;2023-03-01T16:42:55;7.90;;;3.58;;
43337;SDS011;28933;52.492;13.434;2023-03-01T16:45:24;7.93;;;3.85;;
43337;SDS011;28933;52.492;13.434;2023-03-01T16:47:50;6.07;;;3.67;;
43337;SDS011;28933;52.492;13.434;2023-03-01T16:50:17;6.88;;;4.30;;